sensor_id;sensor_type;location;lat;lon;timestamp;temperature;humidity
68943;DHT22;60852;52.190;4.422;2024-03-25T00:00:33;8.64;73.59
68943;DHT22;60852;52.190;4.422;2024-03-25T00:02:59;8.67;73.51
68943;DHT22;60852;52.190;4.422;2024-03-25T00:05:25;8.70;73.55
68943;DHT22;60852;52.190;4.422;2024-03-25T00:07:51;8.79;73.87
68943;DHT22;60852;52.190;4.422;2024-03-25T00:10:17;8.79;73.55
68943;DHT22;60852;52.190;4.422;2024-03-25T00:12:43;8.79;73.25
68943;DHT22;60852;52.190;4.422;2024-03-25T00:15:09;8.83;73.18
68943;DHT22;60852;52.190;4.422;2024-03-25T00:17:34;8.87;72.99
68943;DHT22;60852;52.190;4.422;2024-03-25T00:20:00;8.87;73.13
68943;DHT22;60852;52.190;4.422;2024-03-25T00:22:25;8.87;73.38
68943;DHT22;60852;52.190;4.422;2024-03-25T00:24:52;8.85;73.34
68943;DHT22;60852;52.190;4.422;2024-03-25T00:27:18;8.83;73.43
68943;DHT22;60852;52.190;4.422;2024-03-25T00:29:44;8.77;73.35
68943;DHT22;60852;52.190;4.422;2024-03-25T00:32:09;8.67;73.02
68943;DHT22;60852;52.190;4.422;2024-03-25T00:34:36;8.66;73.25
68943;DHT22;60852;52.190;4.422;2024-03-25T00:37:02;8.66;73.38
68943;DHT22;60852;52.190;4.422;2024-03-25T00:39:30;8.66;73.54
68943;DHT22;60852;52.190;4.422;2024-03-25T00:41:58;8.63;73.30
68943;DHT22;60852;52.190;4.422;2024-03-25T00:44:23;8.63;73.17
68943;DHT22;60852;52.190;4.422;2024-03-25T00:46:49;8.59;72.91
68943;DHT22;60852;52.190;4.422;2024-03-25T00:49:14;8.53;72.83
68943;DHT22;60852;52.190;4.422;2024-03-25T00:51:40;8.53;72.61
68943;DHT22;60852;52.190;4.422;2024-03-25T00:54:06;8.52;72.37
68943;DHT22;60852;52.190;4.422;2024-03-25T00:56:32;8.56;72.48
68943;DHT22;60852;52.190;4.422;2024-03-25T00:58:58;8.59;72.86
68943;DHT22;60852;52.190;4.422;2024-03-25T01:01:31;8.63;73.07
68943;DHT22;60852;52.190;4.422;2024-03-25T01:03:57;8.64;73.25
68943;DHT22;60852;52.190;4.422;2024-03-25T01:06:22;8.63;73.32
68943;DHT22;60852;52.190;4.422;2024-03-25T01:08:49;8.60;73.47
68943;DHT22;60852;52.190;4.422;2024-03-25T01:11:14;8.63;73.39
68943;DHT22;60852;52.190;4.422;2024-03-25T01:13:40;8.57;73.09
68943;DHT22;60852;52.190;4.422;2024-03-25T01:16:07;8.56;73.33
68943;DHT22;60852;52.190;4.422;2024-03-25T01:18:32;8.52;73.37
68943;DHT22;60852;52.190;4.422;2024-03-25T01:20:58;8.49;73.39
68943;DHT22;60852;52.190;4.422;2024-03-25T01:23:24;8.53;73.46
68943;DHT22;60852;52.190;4.422;2024-03-25T01:25:50;8.53;73.18
68943;DHT22;60852;52.190;4.422;2024-03-25T01:28:15;8.55;73.03
68943;DHT22;60852;52.190;4.422;2024-03-25T01:30:41;8.55;73.14
68943;DHT22;60852;52.190;4.422;2024-03-25T01:33:06;8.60;73.07
68943;DHT22;60852;52.190;4.422;2024-03-25T01:35:32;8.60;73.25
68943;DHT22;60852;52.190;4.422;2024-03-25T01:37:57;8.63;73.24
68943;DHT22;60852;52.190;4.422;2024-03-25T01:40:23;8.67;73.19
68943;DHT22;60852;52.190;4.422;2024-03-25T01:42:59;8.66;73.03
68943;DHT22;60852;52.190;4.422;2024-03-25T01:45:29;8.66;72.76
68943;DHT22;60852;52.190;4.422;2024-03-25T01:47:56;8.69;72.72
68943;DHT22;60852;52.190;4.422;2024-03-25T01:50:23;8.72;72.46
68943;DHT22;60852;52.190;4.422;2024-03-25T01:52:49;8.66;72.35
68943;DHT22;60852;52.190;4.422;2024-03-25T01:55:22;8.66;72.02
68943;DHT22;60852;52.190;4.422;2024-03-25T01:57:49;8.59;72.16
68943;DHT22;60852;52.190;4.422;2024-03-25T02:00:16;8.59;72.21
68943;DHT22;60852;52.190;4.422;2024-03-25T02:02:42;8.48;72.63
68943;DHT22;60852;52.190;4.422;2024-03-25T02:05:17;8.46;72.55
68943;DHT22;60852;52.190;4.422;2024-03-25T02:07:43;8.45;72.66
68943;DHT22;60852;52.190;4.422;2024-03-25T02:10:09;8.45;72.72
68943;DHT22;60852;52.190;4.422;2024-03-25T02:12:38;8.43;72.73
68943;DHT22;60852;52.190;4.422;2024-03-25T02:15:08;8.42;72.87
68943;DHT22;60852;52.190;4.422;2024-03-25T02:17:34;8.41;72.92
68943;DHT22;60852;52.190;4.422;2024-03-25T02:20:03;8.31;72.82
68943;DHT22;60852;52.190;4.422;2024-03-25T02:22:31;8.34;72.97
68943;DHT22;60852;52.190;4.422;2024-03-25T02:24:58;8.31;72.97
68943;DHT22;60852;52.190;4.422;2024-03-25T02:27:24;8.31;73.01
68943;DHT22;60852;52.190;4.422;2024-03-25T02:29:50;8.28;72.77
68943;DHT22;60852;52.190;4.422;2024-03-25T02:32:15;8.34;72.73
68943;DHT22;60852;52.190;4.422;2024-03-25T02:34:51;8.34;72.41
68943;DHT22;60852;52.190;4.422;2024-03-25T02:37:17;8.34;72.38
68943;DHT22;60852;52.190;4.422;2024-03-25T02:39:43;8.32;72.20
68943;DHT22;60852;52.190;4.422;2024-03-25T02:42:09;8.25;72.49
68943;DHT22;60852;52.190;4.422;2024-03-25T02:44:35;8.21;72.52
68943;DHT22;60852;52.190;4.422;2024-03-25T02:47:02;8.16;72.81
68943;DHT22;60852;52.190;4.422;2024-03-25T02:49:29;8.16;72.91
68943;DHT22;60852;52.190;4.422;2024-03-25T02:51:54;8.11;73.23
68943;DHT22;60852;52.190;4.422;2024-03-25T02:54:20;8.09;73.22
68943;DHT22;60852;52.190;4.422;2024-03-25T02:56:46;8.09;73.44
68943;DHT22;60852;52.190;4.422;2024-03-25T02:59:12;8.08;73.41
68943;DHT22;60852;52.190;4.422;2024-03-25T03:01:37;8.04;73.48
68943;DHT22;60852;52.190;4.422;2024-03-25T03:04:03;8.05;73.38
68943;DHT22;60852;52.190;4.422;2024-03-25T03:06:28;8.05;73.41
68943;DHT22;60852;52.190;4.422;2024-03-25T03:08:54;7.99;73.53
68943;DHT22;60852;52.190;4.422;2024-03-25T03:11:19;7.94;73.53
68943;DHT22;60852;52.190;4.422;2024-03-25T03:13:45;7.93;73.56
68943;DHT22;60852;52.190;4.422;2024-03-25T03:16:12;7.91;73.53
68943;DHT22;60852;52.190;4.422;2024-03-25T03:18:39;7.83;73.62
68943;DHT22;60852;52.190;4.422;2024-03-25T03:21:04;7.83;73.65
68943;DHT22;60852;52.190;4.422;2024-03-25T03:23:30;7.80;73.72
68943;DHT22;60852;52.190;4.422;2024-03-25T03:25:55;7.80;73.84
68943;DHT22;60852;52.190;4.422;2024-03-25T03:28:22;7.81;73.82
68943;DHT22;60852;52.190;4.422;2024-03-25T03:30:47;7.75;73.73
68943;DHT22;60852;52.190;4.422;2024-03-25T03:33:13;7.75;73.89
68943;DHT22;60852;52.190;4.422;2024-03-25T03:35:38;7.77;73.71
68943;DHT22;60852;52.190;4.422;2024-03-25T03:38:04;7.75;74.00
68943;DHT22;60852;52.190;4.422;2024-03-25T03:40:32;7.75;74.00
68943;DHT22;60852;52.190;4.422;2024-03-25T03:42:58;7.75;73.96
68943;DHT22;60852;52.190;4.422;2024-03-25T03:45:24;7.77;73.93
68943;DHT22;60852;52.190;4.422;2024-03-25T03:47:50;7.75;73.95
68943;DHT22;60852;52.190;4.422;2024-03-25T03:50:16;7.75;73.93
68943;DHT22;60852;52.190;4.422;2024-03-25T03:52:41;7.74;74.05
68943;DHT22;60852;52.190;4.422;2024-03-25T03:55:07;7.77;74.00
68943;DHT22;60852;52.190;4.422;2024-03-25T03:57:32;7.74;74.13
68943;DHT22;60852;52.190;4.422;2024-03-25T03:59:58;7.77;74.08
68943;DHT22;60852;52.190;4.422;2024-03-25T04:02:24;7.75;74.22
68943;DHT22;60852;52.190;4.422;2024-03-25T04:04:50;7.75;74.28
68943;DHT22;60852;52.190;4.422;2024-03-25T04:07:16;7.74;74.38
68943;DHT22;60852;52.190;4.422;2024-03-25T04:09:43;7.73;74.37
68943;DHT22;60852;52.190;4.422;2024-03-25T04:12:08;7.69;74.49
68943;DHT22;60852;52.190;4.422;2024-03-25T04:14:34;7.73;74.74
68943;DHT22;60852;52.190;4.422;2024-03-25T04:16:59;7.80;74.88
68943;DHT22;60852;52.190;4.422;2024-03-25T04:19:26;7.84;74.97
68943;DHT22;60852;52.190;4.422;2024-03-25T04:21:55;7.84;75.00
68943;DHT22;60852;52.190;4.422;2024-03-25T04:24:20;7.84;74.89
68943;DHT22;60852;52.190;4.422;2024-03-25T04:26:46;7.77;74.87
68943;DHT22;60852;52.190;4.422;2024-03-25T04:29:11;7.75;74.92
68943;DHT22;60852;52.190;4.422;2024-03-25T04:31:37;7.70;74.96
68943;DHT22;60852;52.190;4.422;2024-03-25T04:34:03;7.66;75.06
68943;DHT22;60852;52.190;4.422;2024-03-25T04:36:30;7.66;75.28
68943;DHT22;60852;52.190;4.422;2024-03-25T04:38:56;7.66;75.05
68943;DHT22;60852;52.190;4.422;2024-03-25T04:41:21;7.60;75.15
68943;DHT22;60852;52.190;4.422;2024-03-25T04:43:48;7.54;75.05
68943;DHT22;60852;52.190;4.422;2024-03-25T04:46:13;7.44;75.04
68943;DHT22;60852;52.190;4.422;2024-03-25T04:48:38;7.40;75.14
68943;DHT22;60852;52.190;4.422;2024-03-25T04:51:04;7.37;75.17
68943;DHT22;60852;52.190;4.422;2024-03-25T04:53:30;7.33;75.32
68943;DHT22;60852;52.190;4.422;2024-03-25T04:55:56;7.32;75.33
68943;DHT22;60852;52.190;4.422;2024-03-25T04:58:22;7.25;75.42
68943;DHT22;60852;52.190;4.422;2024-03-25T05:00:47;7.22;75.63
68943;DHT22;60852;52.190;4.422;2024-03-25T05:03:13;7.18;75.74
68943;DHT22;60852;52.190;4.422;2024-03-25T05:05:38;7.15;75.97
68943;DHT22;60852;52.190;4.422;2024-03-25T05:08:04;7.06;75.87
68943;DHT22;60852;52.190;4.422;2024-03-25T05:10:29;7.05;76.03
68943;DHT22;60852;52.190;4.422;2024-03-25T05:12:55;7.04;76.15
68943;DHT22;60852;52.190;4.422;2024-03-25T05:15:21;6.99;76.34
68943;DHT22;60852;52.190;4.422;2024-03-25T05:17:46;6.94;76.31
68943;DHT22;60852;52.190;4.422;2024-03-25T05:20:12;6.89;76.45
68943;DHT22;60852;52.190;4.422;2024-03-25T05:22:37;6.91;76.46
68943;DHT22;60852;52.190;4.422;2024-03-25T05:25:03;6.84;76.56
68943;DHT22;60852;52.190;4.422;2024-03-25T05:27:29;6.77;76.73
68943;DHT22;60852;52.190;4.422;2024-03-25T05:29:54;6.74;76.76
68943;DHT22;60852;52.190;4.422;2024-03-25T05:32:19;6.68;76.60
68943;DHT22;60852;52.190;4.422;2024-03-25T05:34:47;6.68;76.79
68943;DHT22;60852;52.190;4.422;2024-03-25T05:37:13;6.63;76.87
68943;DHT22;60852;52.190;4.422;2024-03-25T05:39:39;6.57;76.88
68943;DHT22;60852;52.190;4.422;2024-03-25T05:42:05;6.55;77.09
68943;DHT22;60852;52.190;4.422;2024-03-25T05:44:30;6.51;77.05
68943;DHT22;60852;52.190;4.422;2024-03-25T05:46:56;6.51;77.39
68943;DHT22;60852;52.190;4.422;2024-03-25T05:49:21;6.53;77.34
68943;DHT22;60852;52.190;4.422;2024-03-25T05:51:47;6.51;77.37
68943;DHT22;60852;52.190;4.422;2024-03-25T05:54:13;6.48;77.43
68943;DHT22;60852;52.190;4.422;2024-03-25T05:56:38;6.51;77.58
68943;DHT22;60852;52.190;4.422;2024-03-25T05:59:04;6.55;77.58
68943;DHT22;60852;52.190;4.422;2024-03-25T06:01:29;6.55;77.60
68943;DHT22;60852;52.190;4.422;2024-03-25T06:03:55;6.55;77.48
68943;DHT22;60852;52.190;4.422;2024-03-25T06:06:21;6.54;77.60
68943;DHT22;60852;52.190;4.422;2024-03-25T06:08:46;6.63;77.62
68943;DHT22;60852;52.190;4.422;2024-03-25T06:11:12;6.65;77.74
68943;DHT22;60852;52.190;4.422;2024-03-25T06:13:37;6.67;77.69
68943;DHT22;60852;52.190;4.422;2024-03-25T06:16:03;6.64;77.75
68943;DHT22;60852;52.190;4.422;2024-03-25T06:18:29;6.67;78.01
68943;DHT22;60852;52.190;4.422;2024-03-25T06:20:54;6.70;77.90
68943;DHT22;60852;52.190;4.422;2024-03-25T06:23:27;6.77;77.86
68943;DHT22;60852;52.190;4.422;2024-03-25T06:25:54;6.78;77.71
68943;DHT22;60852;52.190;4.422;2024-03-25T06:28:20;6.78;77.80
68943;DHT22;60852;52.190;4.422;2024-03-25T06:30:47;6.83;78.07
68943;DHT22;60852;52.190;4.422;2024-03-25T06:33:31;6.81;78.13
68943;DHT22;60852;52.190;4.422;2024-03-25T06:36:16;6.85;78.33
68943;DHT22;60852;52.190;4.422;2024-03-25T06:38:43;6.85;78.45
68943;DHT22;60852;52.190;4.422;2024-03-25T06:41:08;6.85;78.66
68943;DHT22;60852;52.190;4.422;2024-03-25T06:43:34;6.92;78.76
68943;DHT22;60852;52.190;4.422;2024-03-25T06:46:00;6.96;78.77
68943;DHT22;60852;52.190;4.422;2024-03-25T06:48:25;7.01;78.79
68943;DHT22;60852;52.190;4.422;2024-03-25T06:50:59;7.02;78.90
68943;DHT22;60852;52.190;4.422;2024-03-25T06:53:25;7.06;79.08
68943;DHT22;60852;52.190;4.422;2024-03-25T06:56:00;7.16;78.98
68943;DHT22;60852;52.190;4.422;2024-03-25T06:58:29;7.22;79.05
68943;DHT22;60852;52.190;4.422;2024-03-25T07:00:56;7.32;78.95
68943;DHT22;60852;52.190;4.422;2024-03-25T07:03:23;7.39;79.06
68943;DHT22;60852;52.190;4.422;2024-03-25T07:05:50;7.49;79.06
68943;DHT22;60852;52.190;4.422;2024-03-25T07:08:20;7.59;79.05
68943;DHT22;60852;52.190;4.422;2024-03-25T07:10:46;7.62;78.96
68943;DHT22;60852;52.190;4.422;2024-03-25T07:13:12;7.67;78.98
68943;DHT22;60852;52.190;4.422;2024-03-25T07:15:38;7.75;79.06
68943;DHT22;60852;52.190;4.422;2024-03-25T07:18:04;7.84;79.04
68943;DHT22;60852;52.190;4.422;2024-03-25T07:20:30;7.91;78.91
68943;DHT22;60852;52.190;4.422;2024-03-25T07:22:56;8.01;78.97
68943;DHT22;60852;52.190;4.422;2024-03-25T07:25:23;8.08;78.73
68943;DHT22;60852;52.190;4.422;2024-03-25T07:27:48;8.14;78.72
68943;DHT22;60852;52.190;4.422;2024-03-25T07:30:14;8.25;78.69
68943;DHT22;60852;52.190;4.422;2024-03-25T07:32:39;8.29;78.73
68943;DHT22;60852;52.190;4.422;2024-03-25T07:35:05;8.36;78.75
68943;DHT22;60852;52.190;4.422;2024-03-25T07:37:33;8.43;78.64
68943;DHT22;60852;52.190;4.422;2024-03-25T07:39:58;8.53;78.74
68943;DHT22;60852;52.190;4.422;2024-03-25T07:42:24;8.60;78.58
68943;DHT22;60852;52.190;4.422;2024-03-25T07:44:49;8.70;78.27
68943;DHT22;60852;52.190;4.422;2024-03-25T07:47:15;8.73;78.02
68943;DHT22;60852;52.190;4.422;2024-03-25T07:49:40;8.81;77.98
68943;DHT22;60852;52.190;4.422;2024-03-25T07:52:06;8.87;77.91
68943;DHT22;60852;52.190;4.422;2024-03-25T07:54:32;8.94;77.70
68943;DHT22;60852;52.190;4.422;2024-03-25T07:56:58;8.97;77.48
68943;DHT22;60852;52.190;4.422;2024-03-25T07:59:23;8.99;77.41
68943;DHT22;60852;52.190;4.422;2024-03-25T08:01:49;9.07;77.24
68943;DHT22;60852;52.190;4.422;2024-03-25T08:04:14;9.11;77.19
68943;DHT22;60852;52.190;4.422;2024-03-25T08:06:40;9.17;77.08
68943;DHT22;60852;52.190;4.422;2024-03-25T08:09:05;9.21;77.04
68943;DHT22;60852;52.190;4.422;2024-03-25T08:11:31;9.28;76.43
68943;DHT22;60852;52.190;4.422;2024-03-25T08:13:57;9.28;76.41
68943;DHT22;60852;52.190;4.422;2024-03-25T08:16:22;9.32;76.32
68943;DHT22;60852;52.190;4.422;2024-03-25T08:18:48;9.39;76.30
68943;DHT22;60852;52.190;4.422;2024-03-25T08:21:13;9.48;75.57
68943;DHT22;60852;52.190;4.422;2024-03-25T08:23:39;9.49;75.61
68943;DHT22;60852;52.190;4.422;2024-03-25T08:26:05;9.49;75.44
68943;DHT22;60852;52.190;4.422;2024-03-25T08:28:32;9.46;75.46
68943;DHT22;60852;52.190;4.422;2024-03-25T08:30:58;9.52;75.36
68943;DHT22;60852;52.190;4.422;2024-03-25T08:33:23;9.53;75.43
68943;DHT22;60852;52.190;4.422;2024-03-25T08:35:49;9.59;75.32
68943;DHT22;60852;52.190;4.422;2024-03-25T08:38:14;9.65;75.25
68943;DHT22;60852;52.190;4.422;2024-03-25T08:40:40;9.73;74.78
68943;DHT22;60852;52.190;4.422;2024-03-25T08:43:06;9.81;74.48
68943;DHT22;60852;52.190;4.422;2024-03-25T08:45:32;9.83;74.50
68943;DHT22;60852;52.190;4.422;2024-03-25T08:47:58;9.87;74.50
68943;DHT22;60852;52.190;4.422;2024-03-25T08:50:24;9.92;74.15
68943;DHT22;60852;52.190;4.422;2024-03-25T08:52:49;9.96;74.03
68943;DHT22;60852;52.190;4.422;2024-03-25T08:55:15;10.00;74.10
68943;DHT22;60852;52.190;4.422;2024-03-25T08:57:40;10.02;73.98
68943;DHT22;60852;52.190;4.422;2024-03-25T09:00:06;10.09;74.22
68943;DHT22;60852;52.190;4.422;2024-03-25T09:02:36;10.18;74.28
68943;DHT22;60852;52.190;4.422;2024-03-25T09:05:02;10.24;74.27
68943;DHT22;60852;52.190;4.422;2024-03-25T09:07:33;10.30;73.57
68943;DHT22;60852;52.190;4.422;2024-03-25T09:09:59;10.41;73.48
68943;DHT22;60852;52.190;4.422;2024-03-25T09:12:43;10.45;73.48
68943;DHT22;60852;52.190;4.422;2024-03-25T09:15:08;10.55;73.38
68943;DHT22;60852;52.190;4.422;2024-03-25T09:17:36;10.69;72.91
68943;DHT22;60852;52.190;4.422;2024-03-25T09:20:02;10.81;72.52
68943;DHT22;60852;52.190;4.422;2024-03-25T09:22:54;10.98;72.27
68943;DHT22;60852;52.190;4.422;2024-03-25T09:25:19;11.06;71.47
68943;DHT22;60852;52.190;4.422;2024-03-25T09:27:49;11.16;71.48
68943;DHT22;60852;52.190;4.422;2024-03-25T09:30:16;11.27;70.34
68943;DHT22;60852;52.190;4.422;2024-03-25T09:32:42;11.23;70.09
68943;DHT22;60852;52.190;4.422;2024-03-25T09:35:09;11.22;70.23
68943;DHT22;60852;52.190;4.422;2024-03-25T09:37:35;11.29;69.98
68943;DHT22;60852;52.190;4.422;2024-03-25T09:40:01;11.24;70.09
68943;DHT22;60852;52.190;4.422;2024-03-25T09:42:42;11.43;70.35
68943;DHT22;60852;52.190;4.422;2024-03-25T09:45:12;11.50;70.00
68943;DHT22;60852;52.190;4.422;2024-03-25T09:47:39;11.63;69.05
68943;DHT22;60852;52.190;4.422;2024-03-25T09:50:06;11.82;68.86
68943;DHT22;60852;52.190;4.422;2024-03-25T09:52:33;11.94;68.75
68943;DHT22;60852;52.190;4.422;2024-03-25T09:54:59;11.98;68.20
68943;DHT22;60852;52.190;4.422;2024-03-25T09:57:25;12.04;68.03
68943;DHT22;60852;52.190;4.422;2024-03-25T09:59:51;12.01;68.33
68943;DHT22;60852;52.190;4.422;2024-03-25T10:02:17;12.09;68.50
68943;DHT22;60852;52.190;4.422;2024-03-25T10:04:48;12.14;67.35
68943;DHT22;60852;52.190;4.422;2024-03-25T10:07:22;12.15;68.04
68943;DHT22;60852;52.190;4.422;2024-03-25T10:09:51;12.19;67.64
68943;DHT22;60852;52.190;4.422;2024-03-25T10:12:17;12.26;67.20
68943;DHT22;60852;52.190;4.422;2024-03-25T10:14:43;12.25;66.05
68943;DHT22;60852;52.190;4.422;2024-03-25T10:17:09;12.24;64.84
68943;DHT22;60852;52.190;4.422;2024-03-25T10:19:35;12.25;64.59
68943;DHT22;60852;52.190;4.422;2024-03-25T10:22:05;12.33;65.04
68943;DHT22;60852;52.190;4.422;2024-03-25T10:24:44;12.40;65.03
68943;DHT22;60852;52.190;4.422;2024-03-25T10:27:23;12.36;63.66
68943;DHT22;60852;52.190;4.422;2024-03-25T10:29:53;12.28;62.27
68943;DHT22;60852;52.190;4.422;2024-03-25T10:32:18;12.25;62.34
68943;DHT22;60852;52.190;4.422;2024-03-25T10:34:44;12.33;61.28
68943;DHT22;60852;52.190;4.422;2024-03-25T10:37:10;12.50;61.83
68943;DHT22;60852;52.190;4.422;2024-03-25T10:39:50;12.79;62.34
68943;DHT22;60852;52.190;4.422;2024-03-25T10:42:20;13.48;61.29
68943;DHT22;60852;52.190;4.422;2024-03-25T10:44:47;13.79;58.04
68943;DHT22;60852;52.190;4.422;2024-03-25T10:47:25;14.21;57.56
68943;DHT22;60852;52.190;4.422;2024-03-25T10:50:01;14.54;55.72
68943;DHT22;60852;52.190;4.422;2024-03-25T10:52:32;14.79;54.41
68943;DHT22;60852;52.190;4.422;2024-03-25T10:54:58;15.02;53.46
68943;DHT22;60852;52.190;4.422;2024-03-25T10:57:25;15.26;52.55
68943;DHT22;60852;52.190;4.422;2024-03-25T10:59:52;15.39;49.85
68943;DHT22;60852;52.190;4.422;2024-03-25T11:02:19;15.50;50.55
68943;DHT22;60852;52.190;4.422;2024-03-25T11:04:45;15.43;50.46
68943;DHT22;60852;52.190;4.422;2024-03-25T11:07:15;15.27;49.37
68943;DHT22;60852;52.190;4.422;2024-03-25T11:09:42;15.05;48.69
68943;DHT22;60852;52.190;4.422;2024-03-25T11:12:11;14.91;47.07
68943;DHT22;60852;52.190;4.422;2024-03-25T11:14:38;14.84;48.97
68943;DHT22;60852;52.190;4.422;2024-03-25T11:17:17;14.91;50.76
68943;DHT22;60852;52.190;4.422;2024-03-25T11:19:42;14.89;51.45
68943;DHT22;60852;52.190;4.422;2024-03-25T11:22:12;14.65;48.97
68943;DHT22;60852;52.190;4.422;2024-03-25T11:24:43;14.54;50.51
68943;DHT22;60852;52.190;4.422;2024-03-25T11:27:09;14.45;50.82
68943;DHT22;60852;52.190;4.422;2024-03-25T11:29:35;14.41;51.58
68943;DHT22;60852;52.190;4.422;2024-03-25T11:32:05;14.49;51.07
68943;DHT22;60852;52.190;4.422;2024-03-25T11:34:31;14.64;47.52
68943;DHT22;60852;52.190;4.422;2024-03-25T11:36:57;14.71;47.51
68943;DHT22;60852;52.190;4.422;2024-03-25T11:39:23;14.79;48.62
68943;DHT22;60852;52.190;4.422;2024-03-25T11:41:49;14.92;47.81
68943;DHT22;60852;52.190;4.422;2024-03-25T11:44:16;14.85;47.51
68943;DHT22;60852;52.190;4.422;2024-03-25T11:46:43;14.84;49.91
68943;DHT22;60852;52.190;4.422;2024-03-25T11:49:15;14.88;50.19
68943;DHT22;60852;52.190;4.422;2024-03-25T11:51:42;14.71;50.50
68943;DHT22;60852;52.190;4.422;2024-03-25T11:54:12;14.44;50.64
68943;DHT22;60852;52.190;4.422;2024-03-25T11:56:38;14.33;51.50
68943;DHT22;60852;52.190;4.422;2024-03-25T11:59:04;14.26;50.90
68943;DHT22;60852;52.190;4.422;2024-03-25T12:01:30;14.24;50.50
68943;DHT22;60852;52.190;4.422;2024-03-25T12:03:56;13.99;50.32
68943;DHT22;60852;52.190;4.422;2024-03-25T12:06:21;13.80;51.30
68943;DHT22;60852;52.190;4.422;2024-03-25T12:08:47;13.82;48.75
68943;DHT22;60852;52.190;4.422;2024-03-25T12:11:32;13.99;48.04
68943;DHT22;60852;52.190;4.422;2024-03-25T12:13:58;14.18;46.81
68943;DHT22;60852;52.190;4.422;2024-03-25T12:16:25;14.40;45.96
68943;DHT22;60852;52.190;4.422;2024-03-25T12:18:51;14.54;47.13
68943;DHT22;60852;52.190;4.422;2024-03-25T12:21:19;14.57;46.84
68943;DHT22;60852;52.190;4.422;2024-03-25T12:23:45;14.54;46.05
68943;DHT22;60852;52.190;4.422;2024-03-25T12:26:12;14.54;46.45
68943;DHT22;60852;52.190;4.422;2024-03-25T12:28:37;14.47;46.09
68943;DHT22;60852;52.190;4.422;2024-03-25T12:31:07;14.40;45.18
68943;DHT22;60852;52.190;4.422;2024-03-25T12:33:45;14.48;46.85
68943;DHT22;60852;52.190;4.422;2024-03-25T12:36:13;14.60;45.72
68943;DHT22;60852;52.190;4.422;2024-03-25T12:38:39;14.68;45.20
68943;DHT22;60852;52.190;4.422;2024-03-25T12:41:07;14.76;45.01
68943;DHT22;60852;52.190;4.422;2024-03-25T12:43:42;14.82;44.81
68943;DHT22;60852;52.190;4.422;2024-03-25T12:46:08;14.84;46.03
68943;DHT22;60852;52.190;4.422;2024-03-25T12:48:34;14.76;44.67
68943;DHT22;60852;52.190;4.422;2024-03-25T12:51:00;14.71;45.11
68943;DHT22;60852;52.190;4.422;2024-03-25T12:53:26;14.57;45.94
68943;DHT22;60852;52.190;4.422;2024-03-25T12:55:52;14.36;45.80
68943;DHT22;60852;52.190;4.422;2024-03-25T12:58:17;14.34;47.33
68943;DHT22;60852;52.190;4.422;2024-03-25T13:00:43;14.48;47.44
68943;DHT22;60852;52.190;4.422;2024-03-25T13:03:09;14.36;46.57
68943;DHT22;60852;52.190;4.422;2024-03-25T13:05:35;14.23;45.36
68943;DHT22;60852;52.190;4.422;2024-03-25T13:08:01;14.38;46.34
68943;DHT22;60852;52.190;4.422;2024-03-25T13:10:29;14.48;46.57
68943;DHT22;60852;52.190;4.422;2024-03-25T13:12:55;14.55;46.74
68943;DHT22;60852;52.190;4.422;2024-03-25T13:15:20;14.52;48.00
68943;DHT22;60852;52.190;4.422;2024-03-25T13:17:46;14.37;47.85
68943;DHT22;60852;52.190;4.422;2024-03-25T13:20:12;14.27;47.27
68943;DHT22;60852;52.190;4.422;2024-03-25T13:22:39;14.10;48.38
68943;DHT22;60852;52.190;4.422;2024-03-25T13:25:05;14.14;48.96
68943;DHT22;60852;52.190;4.422;2024-03-25T13:27:31;14.20;48.11
68943;DHT22;60852;52.190;4.422;2024-03-25T13:29:56;14.26;48.42
68943;DHT22;60852;52.190;4.422;2024-03-25T13:32:22;14.28;49.12
68943;DHT22;60852;52.190;4.422;2024-03-25T13:34:49;14.17;46.99
68943;DHT22;60852;52.190;4.422;2024-03-25T13:37:15;14.13;47.53
68943;DHT22;60852;52.190;4.422;2024-03-25T13:39:40;14.03;47.90
68943;DHT22;60852;52.190;4.422;2024-03-25T13:42:06;13.75;48.09
68943;DHT22;60852;52.190;4.422;2024-03-25T13:44:31;13.65;48.21
68943;DHT22;60852;52.190;4.422;2024-03-25T13:46:57;13.59;48.72
68943;DHT22;60852;52.190;4.422;2024-03-25T13:49:22;13.55;48.22
68943;DHT22;60852;52.190;4.422;2024-03-25T13:52:07;13.62;49.43
68943;DHT22;60852;52.190;4.422;2024-03-25T13:54:32;13.72;49.34
68943;DHT22;60852;52.190;4.422;2024-03-25T13:56:58;13.79;49.69
68943;DHT22;60852;52.190;4.422;2024-03-25T13:59:24;13.80;50.02
68943;DHT22;60852;52.190;4.422;2024-03-25T14:01:50;13.87;50.22
68943;DHT22;60852;52.190;4.422;2024-03-25T14:04:17;13.93;49.75
68943;DHT22;60852;52.190;4.422;2024-03-25T14:06:43;13.95;48.60
68943;DHT22;60852;52.190;4.422;2024-03-25T14:09:13;13.95;49.73
68943;DHT22;60852;52.190;4.422;2024-03-25T14:11:47;13.90;49.26
68943;DHT22;60852;52.190;4.422;2024-03-25T14:14:13;13.86;49.67
68943;DHT22;60852;52.190;4.422;2024-03-25T14:16:38;13.93;48.07
68943;DHT22;60852;52.190;4.422;2024-03-25T14:19:04;14.05;47.83
68943;DHT22;60852;52.190;4.422;2024-03-25T14:21:29;14.02;47.29
68943;DHT22;60852;52.190;4.422;2024-03-25T14:23:55;14.12;46.53
68943;DHT22;60852;52.190;4.422;2024-03-25T14:26:20;14.21;46.17
68943;DHT22;60852;52.190;4.422;2024-03-25T14:28:45;14.31;46.15
68943;DHT22;60852;52.190;4.422;2024-03-25T14:31:11;14.21;45.32
68943;DHT22;60852;52.190;4.422;2024-03-25T14:33:36;14.14;45.92
68943;DHT22;60852;52.190;4.422;2024-03-25T14:36:02;14.09;47.86
68943;DHT22;60852;52.190;4.422;2024-03-25T14:38:29;14.18;46.40
68943;DHT22;60852;52.190;4.422;2024-03-25T14:40:54;14.26;46.07
68943;DHT22;60852;52.190;4.422;2024-03-25T14:43:19;14.33;45.65
68943;DHT22;60852;52.190;4.422;2024-03-25T14:45:45;14.36;45.50
68943;DHT22;60852;52.190;4.422;2024-03-25T14:48:11;14.31;44.63
68943;DHT22;60852;52.190;4.422;2024-03-25T14:50:36;14.27;44.62
68943;DHT22;60852;52.190;4.422;2024-03-25T14:53:03;14.27;44.72
68943;DHT22;60852;52.190;4.422;2024-03-25T14:55:29;14.16;44.76
68943;DHT22;60852;52.190;4.422;2024-03-25T14:57:55;14.02;45.21
68943;DHT22;60852;52.190;4.422;2024-03-25T15:00:21;13.99;45.91
68943;DHT22;60852;52.190;4.422;2024-03-25T15:02:47;13.91;44.47
68943;DHT22;60852;52.190;4.422;2024-03-25T15:05:12;13.77;43.88
68943;DHT22;60852;52.190;4.422;2024-03-25T15:07:38;13.75;43.99
68943;DHT22;60852;52.190;4.422;2024-03-25T15:10:03;13.76;44.95
68943;DHT22;60852;52.190;4.422;2024-03-25T15:12:29;13.77;44.05
68943;DHT22;60852;52.190;4.422;2024-03-25T15:14:54;13.75;44.49
68943;DHT22;60852;52.190;4.422;2024-03-25T15:17:20;13.72;45.52
68943;DHT22;60852;52.190;4.422;2024-03-25T15:19:45;13.69;46.18
68943;DHT22;60852;52.190;4.422;2024-03-25T15:22:11;13.69;46.29
68943;DHT22;60852;52.190;4.422;2024-03-25T15:24:36;13.66;45.35
68943;DHT22;60852;52.190;4.422;2024-03-25T15:27:02;13.65;44.92
68943;DHT22;60852;52.190;4.422;2024-03-25T15:29:27;13.66;45.01
68943;DHT22;60852;52.190;4.422;2024-03-25T15:31:52;13.76;45.08
68943;DHT22;60852;52.190;4.422;2024-03-25T15:34:20;13.75;45.19
68943;DHT22;60852;52.190;4.422;2024-03-25T15:36:45;13.73;46.11